sensor_id;sensor_type;location;lat;lon;timestamp;P1;durP1;ratioP1;P2;durP2;ratioP2
20036;SDS011;10179;42.640;23.312;2024-02-26T00:01:07;14.77;;;7.63;;
20036;SDS011;10179;42.640;23.312;2024-02-26T00:03:32;17.15;;;8.35;;
20036;SDS011;10179;42.640;23.312;2024-02-26T00:06:00;13.43;;;7.25;;
20036;SDS011;10179;42.640;23.312;2024-02-26T00:08:27;17.50;;;8.40;;
20036;SDS011;10179;42.640;23.312;2024-02-26T00:10:53;12.90;;;7.07;;
20036;SDS011;10179;42.640;23.312;2024-02-26T00:13:19;10.45;;;7.05;;
20036;SDS011;10179;42.640;23.312;2024-02-26T00:15:45;10.93;;;6.63;;
20036;SDS011;10179;42.640;23.312;2024-02-26T00:18:11;10.18;;;6.80;;
20036;SDS011;10179;42.640;23.312;2024-02-26T00:20:36;13.00;;;6.63;;
20036;SDS011;10179;42.640;23.312;2024-02-26T00:23:02;20.80;;;11.85;;
20036;SDS011;10179;42.640;23.312;2024-02-26T00:25:27;23.65;;;12.40;;
20036;SDS011;10179;42.640;23.312;2024-02-26T00:27:53;24.10;;;12.60;;
20036;SDS011;10179;42.640;23.312;2024-02-26T00:30:18;23.42;;;12.80;;
20036;SDS011;10179;42.640;23.312;2024-02-26T00:32:44;22.52;;;12.38;;
20036;SDS011;10179;42.640;23.312;2024-02-26T00:35:09;23.02;;;11.30;;
20036;SDS011;10179;42.640;23.312;2024-02-26T00:37:35;21.50;;;12.13;;
20036;SDS011;10179;42.640;23.312;2024-02-26T00:40:00;18.67;;;11.27;;
20036;SDS011;10179;42.640;23.312;2024-02-26T00:42:26;18.15;;;9.13;;
20036;SDS011;10179;42.640;23.312;2024-02-26T00:44:52;16.33;;;8.73;;
20036;SDS011;10179;42.640;23.312;2024-02-26T00:47:17;15.13;;;8.57;;
20036;SDS011;10179;42.640;23.312;2024-02-26T00:49:43;16.50;;;8.32;;
20036;SDS011;10179;42.640;23.312;2024-02-26T00:52:08;15.40;;;9.43;;
20036;SDS011;10179;42.640;23.312;2024-02-26T00:54:34;19.42;;;9.57;;
20036;SDS011;10179;42.640;23.312;2024-02-26T00:56:59;18.33;;;9.38;;
20036;SDS011;10179;42.640;23.312;2024-02-26T00:59:24;17.15;;;9.55;;
20036;SDS011;10179;42.640;23.312;2024-02-26T01:01:50;15.45;;;10.07;;
20036;SDS011;10179;42.640;23.312;2024-02-26T01:04:15;16.85;;;9.95;;
20036;SDS011;10179;42.640;23.312;2024-02-26T01:06:41;19.48;;;10.48;;
20036;SDS011;10179;42.640;23.312;2024-02-26T01:09:06;20.55;;;10.35;;
20036;SDS011;10179;42.640;23.312;2024-02-26T01:11:31;17.55;;;9.27;;
20036;SDS011;10179;42.640;23.312;2024-02-26T01:13:57;15.82;;;8.95;;
20036;SDS011;10179;42.640;23.312;2024-02-26T01:16:23;17.48;;;9.38;;
20036;SDS011;10179;42.640;23.312;2024-02-26T01:18:49;17.20;;;9.05;;
20036;SDS011;10179;42.640;23.312;2024-02-26T01:21:14;17.00;;;9.80;;
20036;SDS011;10179;42.640;23.312;2024-02-26T01:23:40;17.73;;;9.80;;
20036;SDS011;10179;42.640;23.312;2024-02-26T01:26:05;16.17;;;9.25;;
20036;SDS011;10179;42.640;23.312;2024-02-26T01:28:31;17.02;;;10.20;;
20036;SDS011;10179;42.640;23.312;2024-02-26T01:30:56;18.13;;;10.57;;
20036;SDS011;10179;42.640;23.312;2024-02-26T01:33:21;16.98;;;10.07;;
20036;SDS011;10179;42.640;23.312;2024-02-26T01:35:47;18.10;;;10.10;;
20036;SDS011;10179;42.640;23.312;2024-02-26T01:38:13;15.73;;;9.20;;
20036;SDS011;10179;42.640;23.312;2024-02-26T01:40:38;18.73;;;9.75;;
20036;SDS011;10179;42.640;23.312;2024-02-26T01:43:04;18.83;;;10.95;;
20036;SDS011;10179;42.640;23.312;2024-02-26T01:45:29;22.42;;;11.40;;
20036;SDS011;10179;42.640;23.312;2024-02-26T01:47:55;20.50;;;11.70;;
20036;SDS011;10179;42.640;23.312;2024-02-26T01:50:21;21.85;;;11.00;;
20036;SDS011;10179;42.640;23.312;2024-02-26T01:52:48;16.55;;;10.02;;
20036;SDS011;10179;42.640;23.312;2024-02-26T01:55:15;16.67;;;9.90;;
20036;SDS011;10179;42.640;23.312;2024-02-26T01:57:42;18.48;;;10.48;;
20036;SDS011;10179;42.640;23.312;2024-02-26T02:00:10;15.68;;;9.15;;
20036;SDS011;10179;42.640;23.312;2024-02-26T02:02:36;15.88;;;9.45;;
20036;SDS011;10179;42.640;23.312;2024-02-26T02:05:04;17.50;;;10.15;;
20036;SDS011;10179;42.640;23.312;2024-02-26T02:07:30;19.08;;;10.70;;
20036;SDS011;10179;42.640;23.312;2024-02-26T02:09:56;18.40;;;10.38;;
20036;SDS011;10179;42.640;23.312;2024-02-26T02:12:22;19.38;;;10.48;;
20036;SDS011;10179;42.640;23.312;2024-02-26T02:14:47;19.08;;;9.57;;
20036;SDS011;10179;42.640;23.312;2024-02-26T02:17:13;21.75;;;9.48;;
20036;SDS011;10179;42.640;23.312;2024-02-26T02:19:38;17.05;;;9.55;;
20036;SDS011;10179;42.640;23.312;2024-02-26T02:22:04;18.25;;;9.02;;
20036;SDS011;10179;42.640;23.312;2024-02-26T02:24:29;17.00;;;9.43;;
20036;SDS011;10179;42.640;23.312;2024-02-26T02:26:55;16.55;;;9.05;;
20036;SDS011;10179;42.640;23.312;2024-02-26T02:29:20;19.75;;;9.77;;
20036;SDS011;10179;42.640;23.312;2024-02-26T02:31:46;18.67;;;10.55;;
20036;SDS011;10179;42.640;23.312;2024-02-26T02:34:12;22.08;;;11.57;;
20036;SDS011;10179;42.640;23.312;2024-02-26T02:36:48;22.67;;;13.52;;
20036;SDS011;10179;42.640;23.312;2024-02-26T02:39:16;23.35;;;12.85;;
20036;SDS011;10179;42.640;23.312;2024-02-26T02:41:41;21.13;;;12.70;;
20036;SDS011;10179;42.640;23.312;2024-02-26T02:44:07;22.35;;;12.88;;
20036;SDS011;10179;42.640;23.312;2024-02-26T02:46:32;24.40;;;12.32;;
20036;SDS011;10179;42.640;23.312;2024-02-26T02:48:58;21.08;;;12.52;;
20036;SDS011;10179;42.640;23.312;2024-02-26T02:51:24;22.92;;;12.80;;
20036;SDS011;10179;42.640;23.312;2024-02-26T02:53:49;23.52;;;12.95;;
20036;SDS011;10179;42.640;23.312;2024-02-26T02:56:15;20.38;;;11.07;;
20036;SDS011;10179;42.640;23.312;2024-02-26T02:58:40;22.20;;;11.65;;
20036;SDS011;10179;42.640;23.312;2024-02-26T03:01:05;19.92;;;11.05;;
20036;SDS011;10179;42.640;23.312;2024-02-26T03:03:31;17.13;;;10.57;;
20036;SDS011;10179;42.640;23.312;2024-02-26T03:05:56;24.17;;;11.85;;
20036;SDS011;10179;42.640;23.312;2024-02-26T03:08:22;16.42;;;11.18;;
20036;SDS011;10179;42.640;23.312;2024-02-26T03:10:47;17.33;;;10.50;;
20036;SDS011;10179;42.640;23.312;2024-02-26T03:13:13;18.50;;;10.80;;
20036;SDS011;10179;42.640;23.312;2024-02-26T03:15:39;23.95;;;10.68;;
20036;SDS011;10179;42.640;23.312;2024-02-26T03:18:04;19.77;;;10.30;;
20036;SDS011;10179;42.640;23.312;2024-02-26T03:20:30;20.63;;;10.95;;
20036;SDS011;10179;42.640;23.312;2024-02-26T03:22:55;21.27;;;11.20;;
20036;SDS011;10179;42.640;23.312;2024-02-26T03:25:21;18.90;;;10.32;;
20036;SDS011;10179;42.640;23.312;2024-02-26T03:27:46;17.55;;;9.63;;
20036;SDS011;10179;42.640;23.312;2024-02-26T03:30:12;18.35;;;9.43;;
20036;SDS011;10179;42.640;23.312;2024-02-26T03:32:37;29.58;;;9.55;;
20036;SDS011;10179;42.640;23.312;2024-02-26T03:35:03;17.55;;;10.00;;
20036;SDS011;10179;42.640;23.312;2024-02-26T03:37:29;20.65;;;10.25;;
20036;SDS011;10179;42.640;23.312;2024-02-26T03:39:55;22.92;;;10.80;;
20036;SDS011;10179;42.640;23.312;2024-02-26T03:42:22;20.63;;;9.63;;
20036;SDS011;10179;42.640;23.312;2024-02-26T03:44:47;19.55;;;10.52;;
20036;SDS011;10179;42.640;23.312;2024-02-26T03:47:13;21.90;;;10.88;;
20036;SDS011;10179;42.640;23.312;2024-02-26T03:49:38;21.38;;;11.55;;
20036;SDS011;10179;42.640;23.312;2024-02-26T03:52:04;20.08;;;10.55;;
20036;SDS011;10179;42.640;23.312;2024-02-26T03:54:30;17.17;;;8.95;;
20036;SDS011;10179;42.640;23.312;2024-02-26T03:56:56;16.88;;;9.00;;
20036;SDS011;10179;42.640;23.312;2024-02-26T03:59:21;19.10;;;9.25;;
20036;SDS011;10179;42.640;23.312;2024-02-26T04:01:49;18.80;;;10.85;;
20036;SDS011;10179;42.640;23.312;2024-02-26T04:04:14;21.80;;;13.18;;
20036;SDS011;10179;42.640;23.312;2024-02-26T04:06:43;19.73;;;11.55;;
20036;SDS011;10179;42.640;23.312;2024-02-26T04:09:09;23.63;;;12.63;;
20036;SDS011;10179;42.640;23.312;2024-02-26T04:11:35;23.10;;;13.27;;
20036;SDS011;10179;42.640;23.312;2024-02-26T04:14:00;19.63;;;10.05;;
20036;SDS011;10179;42.640;23.312;2024-02-26T04:16:28;18.65;;;9.55;;
20036;SDS011;10179;42.640;23.312;2024-02-26T04:18:53;18.88;;;11.57;;
20036;SDS011;10179;42.640;23.312;2024-02-26T04:21:19;16.83;;;10.60;;
20036;SDS011;10179;42.640;23.312;2024-02-26T04:23:45;19.67;;;11.25;;
20036;SDS011;10179;42.640;23.312;2024-02-26T04:26:10;22.95;;;13.23;;
20036;SDS011;10179;42.640;23.312;2024-02-26T04:28:36;22.83;;;13.43;;
20036;SDS011;10179;42.640;23.312;2024-02-26T04:31:01;26.50;;;14.18;;
20036;SDS011;10179;42.640;23.312;2024-02-26T04:33:27;28.05;;;14.30;;
20036;SDS011;10179;42.640;23.312;2024-02-26T04:35:52;30.98;;;17.38;;
20036;SDS011;10179;42.640;23.312;2024-02-26T04:38:18;28.80;;;16.48;;
20036;SDS011;10179;42.640;23.312;2024-02-26T04:40:44;27.33;;;16.23;;
20036;SDS011;10179;42.640;23.312;2024-02-26T04:43:09;25.60;;;14.88;;
20036;SDS011;10179;42.640;23.312;2024-02-26T04:45:34;25.80;;;14.77;;
20036;SDS011;10179;42.640;23.312;2024-02-26T04:48:00;27.95;;;16.17;;
20036;SDS011;10179;42.640;23.312;2024-02-26T04:50:25;33.15;;;17.08;;
20036;SDS011;10179;42.640;23.312;2024-02-26T04:52:51;30.73;;;16.60;;
20036;SDS011;10179;42.640;23.312;2024-02-26T04:55:16;32.47;;;17.52;;
20036;SDS011;10179;42.640;23.312;2024-02-26T04:57:43;29.00;;;17.70;;
20036;SDS011;10179;42.640;23.312;2024-02-26T05:00:08;30.15;;;15.95;;
20036;SDS011;10179;42.640;23.312;2024-02-26T05:02:34;30.88;;;16.10;;
20036;SDS011;10179;42.640;23.312;2024-02-26T05:05:03;23.75;;;14.90;;
20036;SDS011;10179;42.640;23.312;2024-02-26T05:07:30;26.42;;;14.38;;
20036;SDS011;10179;42.640;23.312;2024-02-26T05:09:55;25.02;;;14.02;;
20036;SDS011;10179;42.640;23.312;2024-02-26T05:12:21;25.27;;;14.00;;
20036;SDS011;10179;42.640;23.312;2024-02-26T05:14:46;28.02;;;14.48;;
20036;SDS011;10179;42.640;23.312;2024-02-26T05:17:11;30.38;;;14.88;;
20036;SDS011;10179;42.640;23.312;2024-02-26T05:19:37;25.27;;;15.10;;
20036;SDS011;10179;42.640;23.312;2024-02-26T05:22:02;26.40;;;15.73;;
20036;SDS011;10179;42.640;23.312;2024-02-26T05:24:28;27.00;;;15.23;;
20036;SDS011;10179;42.640;23.312;2024-02-26T05:26:53;31.35;;;15.93;;
20036;SDS011;10179;42.640;23.312;2024-02-26T05:29:20;27.20;;;16.02;;
20036;SDS011;10179;42.640;23.312;2024-02-26T05:31:45;30.48;;;17.17;;
20036;SDS011;10179;42.640;23.312;2024-02-26T05:34:11;30.75;;;16.80;;
20036;SDS011;10179;42.640;23.312;2024-02-26T05:36:36;31.02;;;16.65;;
20036;SDS011;10179;42.640;23.312;2024-02-26T05:39:02;30.80;;;17.17;;
20036;SDS011;10179;42.640;23.312;2024-02-26T05:41:28;30.42;;;16.55;;
20036;SDS011;10179;42.640;23.312;2024-02-26T05:43:55;27.15;;;17.13;;
20036;SDS011;10179;42.640;23.312;2024-02-26T05:46:21;34.63;;;17.48;;
20036;SDS011;10179;42.640;23.312;2024-02-26T05:48:47;31.10;;;17.15;;
20036;SDS011;10179;42.640;23.312;2024-02-26T05:51:15;33.63;;;18.20;;
20036;SDS011;10179;42.640;23.312;2024-02-26T05:53:41;32.65;;;19.15;;
20036;SDS011;10179;42.640;23.312;2024-02-26T05:56:06;32.83;;;19.17;;
20036;SDS011;10179;42.640;23.312;2024-02-26T05:58:32;32.72;;;18.70;;
20036;SDS011;10179;42.640;23.312;2024-02-26T06:00:57;33.80;;;18.33;;
20036;SDS011;10179;42.640;23.312;2024-02-26T06:03:23;32.88;;;20.17;;
20036;SDS011;10179;42.640;23.312;2024-02-26T06:05:48;35.67;;;19.35;;
20036;SDS011;10179;42.640;23.312;2024-02-26T06:08:13;33.30;;;19.38;;
20036;SDS011;10179;42.640;23.312;2024-02-26T06:10:39;33.95;;;18.70;;
20036;SDS011;10179;42.640;23.312;2024-02-26T06:13:05;31.08;;;18.20;;
20036;SDS011;10179;42.640;23.312;2024-02-26T06:15:30;34.60;;;18.08;;
20036;SDS011;10179;42.640;23.312;2024-02-26T06:17:56;36.72;;;19.02;;
20036;SDS011;10179;42.640;23.312;2024-02-26T06:20:21;32.33;;;19.40;;
20036;SDS011;10179;42.640;23.312;2024-02-26T06:22:47;32.75;;;18.92;;
20036;SDS011;10179;42.640;23.312;2024-02-26T06:25:12;31.98;;;18.13;;
20036;SDS011;10179;42.640;23.312;2024-02-26T06:27:37;37.00;;;19.00;;
20036;SDS011;10179;42.640;23.312;2024-02-26T06:30:03;33.63;;;19.65;;
20036;SDS011;10179;42.640;23.312;2024-02-26T06:32:29;34.60;;;19.35;;
20036;SDS011;10179;42.640;23.312;2024-02-26T06:34:55;37.33;;;19.48;;
20036;SDS011;10179;42.640;23.312;2024-02-26T06:37:21;37.88;;;19.65;;
20036;SDS011;10179;42.640;23.312;2024-02-26T06:39:46;34.65;;;17.75;;
20036;SDS011;10179;42.640;23.312;2024-02-26T06:42:12;36.83;;;20.35;;
20036;SDS011;10179;42.640;23.312;2024-02-26T06:44:37;45.67;;;22.58;;
20036;SDS011;10179;42.640;23.312;2024-02-26T06:47:02;41.25;;;24.10;;
20036;SDS011;10179;42.640;23.312;2024-02-26T06:49:29;38.05;;;23.77;;
20036;SDS011;10179;42.640;23.312;2024-02-26T06:51:55;39.88;;;22.00;;
20036;SDS011;10179;42.640;23.312;2024-02-26T06:54:20;43.63;;;25.00;;
20036;SDS011;10179;42.640;23.312;2024-02-26T06:56:46;36.25;;;21.70;;
20036;SDS011;10179;42.640;23.312;2024-02-26T06:59:11;45.00;;;23.30;;
20036;SDS011;10179;42.640;23.312;2024-02-26T07:01:37;40.60;;;22.83;;
20036;SDS011;10179;42.640;23.312;2024-02-26T07:04:02;40.00;;;21.73;;
20036;SDS011;10179;42.640;23.312;2024-02-26T07:06:27;38.25;;;20.80;;
20036;SDS011;10179;42.640;23.312;2024-02-26T07:08:53;35.85;;;20.38;;
20036;SDS011;10179;42.640;23.312;2024-02-26T07:11:19;35.97;;;19.23;;
20036;SDS011;10179;42.640;23.312;2024-02-26T07:13:45;35.53;;;19.35;;
20036;SDS011;10179;42.640;23.312;2024-02-26T07:16:11;40.35;;;20.25;;
20036;SDS011;10179;42.640;23.312;2024-02-26T07:18:37;25.00;;;16.13;;
20036;SDS011;10179;42.640;23.312;2024-02-26T07:21:04;36.05;;;15.55;;
20036;SDS011;10179;42.640;23.312;2024-02-26T07:23:30;26.08;;;14.05;;
20036;SDS011;10179;42.640;23.312;2024-02-26T07:25:56;25.77;;;14.07;;
20036;SDS011;10179;42.640;23.312;2024-02-26T07:28:21;28.75;;;17.58;;
20036;SDS011;10179;42.640;23.312;2024-02-26T07:30:47;36.35;;;21.48;;
20036;SDS011;10179;42.640;23.312;2024-02-26T07:33:12;24.42;;;12.05;;
20036;SDS011;10179;42.640;23.312;2024-02-26T07:35:38;19.83;;;11.18;;
20036;SDS011;10179;42.640;23.312;2024-02-26T07:38:04;27.42;;;12.18;;
20036;SDS011;10179;42.640;23.312;2024-02-26T07:40:30;20.75;;;11.65;;
20036;SDS011;10179;42.640;23.312;2024-02-26T07:42:55;24.65;;;11.90;;
20036;SDS011;10179;42.640;23.312;2024-02-26T07:45:21;21.10;;;11.70;;
20036;SDS011;10179;42.640;23.312;2024-02-26T07:47:47;22.02;;;11.80;;
20036;SDS011;10179;42.640;23.312;2024-02-26T07:50:12;26.52;;;11.23;;
20036;SDS011;10179;42.640;23.312;2024-02-26T07:52:38;33.10;;;18.35;;
20036;SDS011;10179;42.640;23.312;2024-02-26T07:55:04;38.08;;;17.08;;
20036;SDS011;10179;42.640;23.312;2024-02-26T07:57:30;32.90;;;14.95;;
20036;SDS011;10179;42.640;23.312;2024-02-26T07:59:56;29.65;;;14.05;;
20036;SDS011;10179;42.640;23.312;2024-02-26T08:02:22;27.35;;;11.98;;
20036;SDS011;10179;42.640;23.312;2024-02-26T08:04:47;39.40;;;16.45;;
20036;SDS011;10179;42.640;23.312;2024-02-26T08:07:12;38.08;;;16.60;;
20036;SDS011;10179;42.640;23.312;2024-02-26T08:09:38;32.35;;;16.13;;
20036;SDS011;10179;42.640;23.312;2024-02-26T08:12:04;35.45;;;16.77;;
20036;SDS011;10179;42.640;23.312;2024-02-26T08:14:30;26.50;;;14.45;;
20036;SDS011;10179;42.640;23.312;2024-02-26T08:16:58;35.13;;;15.35;;
20036;SDS011;10179;42.640;23.312;2024-02-26T08:19:23;27.45;;;14.30;;
20036;SDS011;10179;42.640;23.312;2024-02-26T08:21:49;25.27;;;14.13;;
20036;SDS011;10179;42.640;23.312;2024-02-26T08:24:15;30.52;;;13.73;;
20036;SDS011;10179;42.640;23.312;2024-02-26T08:26:40;27.90;;;12.23;;
20036;SDS011;10179;42.640;23.312;2024-02-26T08:29:05;24.02;;;9.43;;
20036;SDS011;10179;42.640;23.312;2024-02-26T08:31:31;18.58;;;6.47;;
20036;SDS011;10179;42.640;23.312;2024-02-26T08:33:56;10.80;;;5.85;;
20036;SDS011;10179;42.640;23.312;2024-02-26T08:36:23;14.90;;;6.18;;
20036;SDS011;10179;42.640;23.312;2024-02-26T08:38:48;11.65;;;5.80;;
20036;SDS011;10179;42.640;23.312;2024-02-26T08:41:14;14.23;;;5.72;;
20036;SDS011;10179;42.640;23.312;2024-02-26T08:43:39;9.00;;;4.97;;
20036;SDS011;10179;42.640;23.312;2024-02-26T08:46:08;10.50;;;5.53;;
20036;SDS011;10179;42.640;23.312;2024-02-26T08:48:34;9.20;;;5.40;;
20036;SDS011;10179;42.640;23.312;2024-02-26T08:50:59;9.20;;;5.18;;
20036;SDS011;10179;42.640;23.312;2024-02-26T08:53:24;12.30;;;5.78;;
20036;SDS011;10179;42.640;23.312;2024-02-26T08:55:51;14.30;;;5.68;;
20036;SDS011;10179;42.640;23.312;2024-02-26T08:58:17;8.25;;;5.15;;
20036;SDS011;10179;42.640;23.312;2024-02-26T09:00:42;11.15;;;4.85;;
20036;SDS011;10179;42.640;23.312;2024-02-26T09:03:08;8.05;;;4.75;;
20036;SDS011;10179;42.640;23.312;2024-02-26T09:05:33;7.47;;;4.40;;
20036;SDS011;10179;42.640;23.312;2024-02-26T09:07:59;11.60;;;5.50;;
20036;SDS011;10179;42.640;23.312;2024-02-26T09:10:24;9.32;;;5.53;;
20036;SDS011;10179;42.640;23.312;2024-02-26T09:12:50;9.23;;;5.00;;
20036;SDS011;10179;42.640;23.312;2024-02-26T09:15:15;9.70;;;4.18;;
20036;SDS011;10179;42.640;23.312;2024-02-26T09:17:41;9.60;;;4.90;;
20036;SDS011;10179;42.640;23.312;2024-02-26T09:20:06;13.98;;;5.07;;
20036;SDS011;10179;42.640;23.312;2024-02-26T09:22:34;8.38;;;4.50;;
20036;SDS011;10179;42.640;23.312;2024-02-26T09:24:59;8.82;;;4.80;;
20036;SDS011;10179;42.640;23.312;2024-02-26T09:27:25;10.75;;;5.00;;
20036;SDS011;10179;42.640;23.312;2024-02-26T09:29:50;10.82;;;3.53;;
20036;SDS011;10179;42.640;23.312;2024-02-26T09:32:16;12.13;;;5.32;;
20036;SDS011;10179;42.640;23.312;2024-02-26T09:34:42;10.40;;;5.30;;
20036;SDS011;10179;42.640;23.312;2024-02-26T09:37:07;9.70;;;5.30;;
20036;SDS011;10179;42.640;23.312;2024-02-26T09:39:33;6.47;;;3.35;;
20036;SDS011;10179;42.640;23.312;2024-02-26T09:41:58;14.45;;;5.30;;
20036;SDS011;10179;42.640;23.312;2024-02-26T09:44:29;8.07;;;4.80;;
20036;SDS011;10179;42.640;23.312;2024-02-26T09:46:55;10.65;;;5.00;;
20036;SDS011;10179;42.640;23.312;2024-02-26T09:49:22;12.82;;;4.97;;
20036;SDS011;10179;42.640;23.312;2024-02-26T09:51:49;5.95;;;3.08;;
20036;SDS011;10179;42.640;23.312;2024-02-26T09:54:17;7.78;;;4.82;;
20036;SDS011;10179;42.640;23.312;2024-02-26T09:56:43;6.55;;;5.25;;
20036;SDS011;10179;42.640;23.312;2024-02-26T09:59:13;8.65;;;5.93;;
20036;SDS011;10179;42.640;23.312;2024-02-26T10:01:42;12.18;;;4.38;;
20036;SDS011;10179;42.640;23.312;2024-02-26T10:04:09;7.68;;;5.20;;
20036;SDS011;10179;42.640;23.312;2024-02-26T10:06:36;8.77;;;5.07;;
20036;SDS011;10179;42.640;23.312;2024-02-26T10:09:03;9.45;;;4.65;;
20036;SDS011;10179;42.640;23.312;2024-02-26T10:11:31;10.63;;;5.28;;
20036;SDS011;10179;42.640;23.312;2024-02-26T10:13:57;13.98;;;5.35;;
20036;SDS011;10179;42.640;23.312;2024-02-26T10:16:23;10.27;;;5.13;;
20036;SDS011;10179;42.640;23.312;2024-02-26T10:18:50;9.35;;;5.35;;
20036;SDS011;10179;42.640;23.312;2024-02-26T10:21:18;6.53;;;4.47;;
20036;SDS011;10179;42.640;23.312;2024-02-26T10:23:45;10.10;;;5.25;;
20036;SDS011;10179;42.640;23.312;2024-02-26T10:26:11;7.38;;;4.95;;
20036;SDS011;10179;42.640;23.312;2024-02-26T10:28:37;6.65;;;4.72;;
20036;SDS011;10179;42.640;23.312;2024-02-26T10:31:05;7.72;;;4.88;;
20036;SDS011;10179;42.640;23.312;2024-02-26T10:33:34;9.35;;;4.78;;
20036;SDS011;10179;42.640;23.312;2024-02-26T10:36:06;7.35;;;3.78;;
20036;SDS011;10179;42.640;23.312;2024-02-26T10:38:33;9.88;;;4.50;;
20036;SDS011;10179;42.640;23.312;2024-02-26T10:41:03;8.40;;;4.70;;
20036;SDS011;10179;42.640;23.312;2024-02-26T10:43:30;9.35;;;4.88;;
20036;SDS011;10179;42.640;23.312;2024-02-26T10:45:55;8.15;;;4.63;;
20036;SDS011;10179;42.640;23.312;2024-02-26T10:48:21;9.32;;;4.45;;
20036;SDS011;10179;42.640;23.312;2024-02-26T10:50:47;10.27;;;4.90;;
20036;SDS011;10179;42.640;23.312;2024-02-26T10:53:17;9.85;;;4.65;;
20036;SDS011;10179;42.640;23.312;2024-02-26T10:55:46;12.48;;;3.42;;
20036;SDS011;10179;42.640;23.312;2024-02-26T10:58:19;7.00;;;4.07;;
20036;SDS011;10179;42.640;23.312;2024-02-26T11:00:46;8.80;;;5.30;;
20036;SDS011;10179;42.640;23.312;2024-02-26T11:03:13;10.50;;;5.03;;
20036;SDS011;10179;42.640;23.312;2024-02-26T11:05:42;7.75;;;5.18;;
20036;SDS011;10179;42.640;23.312;2024-02-26T11:08:09;6.32;;;4.20;;
20036;SDS011;10179;42.640;23.312;2024-02-26T11:10:36;10.93;;;5.28;;
20036;SDS011;10179;42.640;23.312;2024-02-26T11:13:03;11.23;;;4.75;;
20036;SDS011;10179;42.640;23.312;2024-02-26T11:15:30;6.57;;;4.93;;
20036;SDS011;10179;42.640;23.312;2024-02-26T11:17:59;8.07;;;5.00;;
20036;SDS011;10179;42.640;23.312;2024-02-26T11:20:28;6.05;;;4.25;;
20036;SDS011;10179;42.640;23.312;2024-02-26T11:22:54;10.95;;;4.93;;
20036;SDS011;10179;42.640;23.312;2024-02-26T11:25:19;8.77;;;4.82;;
20036;SDS011;10179;42.640;23.312;2024-02-26T11:27:47;8.50;;;4.10;;
20036;SDS011;10179;42.640;23.312;2024-02-26T11:30:22;6.75;;;4.30;;
20036;SDS011;10179;42.640;23.312;2024-02-26T11:32:49;6.85;;;5.00;;
20036;SDS011;10179;42.640;23.312;2024-02-26T11:35:16;7.88;;;4.90;;
20036;SDS011;10179;42.640;23.312;2024-02-26T11:37:56;6.80;;;4.53;;
20036;SDS011;10179;42.640;23.312;2024-02-26T11:40:25;11.68;;;5.43;;
20036;SDS011;10179;42.640;23.312;2024-02-26T11:42:51;9.30;;;4.60;;
20036;SDS011;10179;42.640;23.312;2024-02-26T11:48:21;9.00;;;4.90;;
20036;SDS011;10179;42.640;23.312;2024-02-26T11:50:49;7.28;;;4.60;;
20036;SDS011;10179;42.640;23.312;2024-02-26T11:55:47;11.10;;;4.78;;
20036;SDS011;10179;42.640;23.312;2024-02-26T11:58:13;10.40;;;4.63;;
20036;SDS011;10179;42.640;23.312;2024-02-26T12:00:42;10.70;;;4.47;;
20036;SDS011;10179;42.640;23.312;2024-02-26T12:03:07;10.25;;;5.07;;
20036;SDS011;10179;42.640;23.312;2024-02-26T12:05:35;11.07;;;4.10;;
20036;SDS011;10179;42.640;23.312;2024-02-26T12:08:03;7.60;;;3.97;;
20036;SDS011;10179;42.640;23.312;2024-02-26T12:13:08;7.28;;;3.85;;
20036;SDS011;10179;42.640;23.312;2024-02-26T12:15:38;7.43;;;3.80;;
20036;SDS011;10179;42.640;23.312;2024-02-26T12:18:24;6.28;;;4.10;;
20036;SDS011;10179;42.640;23.312;2024-02-26T12:20:59;8.80;;;4.10;;
20036;SDS011;10179;42.640;23.312;2024-02-26T12:23:26;7.78;;;4.20;;
20036;SDS011;10179;42.640;23.312;2024-02-26T12:25:52;8.10;;;3.83;;
20036;SDS011;10179;42.640;23.312;2024-02-26T12:28:17;6.68;;;4.40;;
20036;SDS011;10179;42.640;23.312;2024-02-26T12:30:43;4.82;;;3.45;;
20036;SDS011;10179;42.640;23.312;2024-02-26T12:33:08;7.47;;;4.03;;
20036;SDS011;10179;42.640;23.312;2024-02-26T12:35:34;7.20;;;3.67;;
20036;SDS011;10179;42.640;23.312;2024-02-26T12:38:00;6.45;;;4.07;;
20036;SDS011;10179;42.640;23.312;2024-02-26T12:40:26;8.10;;;3.90;;
20036;SDS011;10179;42.640;23.312;2024-02-26T12:42:52;9.70;;;4.18;;
20036;SDS011;10179;42.640;23.312;2024-02-26T12:45:20;12.52;;;3.80;;
20036;SDS011;10179;42.640;23.312;2024-02-26T12:47:45;6.30;;;4.05;;
20036;SDS011;10179;42.640;23.312;2024-02-26T12:50:11;13.85;;;3.60;;
20036;SDS011;10179;42.640;23.312;2024-02-26T12:52:39;5.15;;;3.50;;
20036;SDS011;10179;42.640;23.312;2024-02-26T12:55:08;7.05;;;2.83;;
20036;SDS011;10179;42.640;23.312;2024-02-26T12:57:35;5.47;;;3.92;;
20036;SDS011;10179;42.640;23.312;2024-02-26T13:00:02;10.68;;;3.75;;
20036;SDS011;10179;42.640;23.312;2024-02-26T13:02:34;6.33;;;3.70;;
20036;SDS011;10179;42.640;23.312;2024-02-26T13:05:02;4.50;;;3.30;;
20036;SDS011;10179;42.640;23.312;2024-02-26T13:07:29;9.07;;;3.90;;
20036;SDS011;10179;42.640;23.312;2024-02-26T13:09:55;9.30;;;4.28;;
20036;SDS011;10179;42.640;23.312;2024-02-26T13:12:21;6.32;;;3.00;;
20036;SDS011;10179;42.640;23.312;2024-02-26T13:14:46;8.73;;;3.95;;
20036;SDS011;10179;42.640;23.312;2024-02-26T13:17:12;6.45;;;3.50;;
20036;SDS011;10179;42.640;23.312;2024-02-26T13:19:37;9.43;;;3.30;;
20036;SDS011;10179;42.640;23.312;2024-02-26T13:22:14;8.52;;;3.72;;
20036;SDS011;10179;42.640;23.312;2024-02-26T13:24:39;7.82;;;3.70;;
20036;SDS011;10179;42.640;23.312;2024-02-26T13:27:05;7.72;;;3.20;;
20036;SDS011;10179;42.640;23.312;2024-02-26T13:29:31;6.35;;;3.72;;
20036;SDS011;10179;42.640;23.312;2024-02-26T13:32:00;6.15;;;3.53;;
20036;SDS011;10179;42.640;23.312;2024-02-26T13:34:26;5.68;;;3.28;;
20036;SDS011;10179;42.640;23.312;2024-02-26T13:36:52;9.65;;;3.42;;
20036;SDS011;10179;42.640;23.312;2024-02-26T13:39:25;12.90;;;3.17;;
20036;SDS011;10179;42.640;23.312;2024-02-26T13:41:51;8.57;;;3.53;;
20036;SDS011;10179;42.640;23.312;2024-02-26T13:44:18;8.95;;;3.65;;
20036;SDS011;10179;42.640;23.312;2024-02-26T13:46:45;7.13;;;3.17;;
20036;SDS011;10179;42.640;23.312;2024-02-26T13:49:10;7.93;;;2.97;;
20036;SDS011;10179;42.640;23.312;2024-02-26T13:51:36;9.48;;;3.60;;
20036;SDS011;10179;42.640;23.312;2024-02-26T13:54:03;3.88;;;2.80;;
20036;SDS011;10179;42.640;23.312;2024-02-26T13:56:29;5.72;;;2.97;;
20036;SDS011;10179;42.640;23.312;2024-02-26T13:58:54;9.30;;;3.40;;
20036;SDS011;10179;42.640;23.312;2024-02-26T14:01:20;12.40;;;3.60;;
20036;SDS011;10179;42.640;23.312;2024-02-26T14:03:45;4.03;;;2.85;;
20036;SDS011;10179;42.640;23.312;2024-02-26T14:06:11;11.02;;;3.65;;
20036;SDS011;10179;42.640;23.312;2024-02-26T14:08:37;6.45;;;3.20;;
20036;SDS011;10179;42.640;23.312;2024-02-26T14:11:02;6.65;;;3.25;;
20036;SDS011;10179;42.640;23.312;2024-02-26T14:13:28;5.10;;;3.20;;
20036;SDS011;10179;42.640;23.312;2024-02-26T14:15:53;6.80;;;2.97;;
20036;SDS011;10179;42.640;23.312;2024-02-26T14:18:19;6.35;;;3.22;;
20036;SDS011;10179;42.640;23.312;2024-02-26T14:20:44;8.13;;;3.50;;